sensor_id;sensor_type;location;lat;lon;timestamp;temperature;humidity
17421;DHT22;8828;48.800;9.540;2023-07-20T00:01:06;23.30;85.20
17421;DHT22;8828;48.800;9.540;2023-07-20T00:03:34;23.20;85.00
17421;DHT22;8828;48.800;9.540;2023-07-20T00:06:02;23.20;85.10
17421;DHT22;8828;48.800;9.540;2023-07-20T00:08:30;23.20;85.30
17421;DHT22;8828;48.800;9.540;2023-07-20T00:10:58;23.20;85.50
17421;DHT22;8828;48.800;9.540;2023-07-20T00:13:27;23.10;85.20
17421;DHT22;8828;48.800;9.540;2023-07-20T00:15:55;23.10;85.30
17421;DHT22;8828;48.800;9.540;2023-07-20T00:18:23;23.10;85.40
17421;DHT22;8828;48.800;9.540;2023-07-20T00:20:51;23.10;85.60
17421;DHT22;8828;48.800;9.540;2023-07-20T00:23:19;23.00;85.10
17421;DHT22;8828;48.800;9.540;2023-07-20T00:25:49;23.00;85.20
17421;DHT22;8828;48.800;9.540;2023-07-20T00:28:17;23.00;85.40
17421;DHT22;8828;48.800;9.540;2023-07-20T00:30:46;22.90;85.00
17421;DHT22;8828;48.800;9.540;2023-07-20T00:33:16;22.90;85.10
17421;DHT22;8828;48.800;9.540;2023-07-20T00:35:44;22.90;85.60
17421;DHT22;8828;48.800;9.540;2023-07-20T00:38:12;22.80;85.30
17421;DHT22;8828;48.800;9.540;2023-07-20T00:40:40;22.90;85.30
17421;DHT22;8828;48.800;9.540;2023-07-20T00:43:08;22.90;85.60
17421;DHT22;8828;48.800;9.540;2023-07-20T00:45:37;22.80;85.40
17421;DHT22;8828;48.800;9.540;2023-07-20T00:48:07;22.80;86.10
17421;DHT22;8828;48.800;9.540;2023-07-20T00:50:35;22.70;86.00
17421;DHT22;8828;48.800;9.540;2023-07-20T00:53:03;22.70;86.00
17421;DHT22;8828;48.800;9.540;2023-07-20T00:55:32;22.60;86.30
17421;DHT22;8828;48.800;9.540;2023-07-20T00:58:00;22.60;86.00
17421;DHT22;8828;48.800;9.540;2023-07-20T01:00:28;22.60;85.60
17421;DHT22;8828;48.800;9.540;2023-07-20T01:02:56;22.50;86.00
17421;DHT22;8828;48.800;9.540;2023-07-20T01:05:26;22.50;85.70
17421;DHT22;8828;48.800;9.540;2023-07-20T01:07:59;22.50;86.10
17421;DHT22;8828;48.800;9.540;2023-07-20T01:10:29;22.40;86.30
17421;DHT22;8828;48.800;9.540;2023-07-20T01:12:59;22.30;86.60
17421;DHT22;8828;48.800;9.540;2023-07-20T01:15:28;22.20;86.70
17421;DHT22;8828;48.800;9.540;2023-07-20T01:17:55;22.20;87.20
17421;DHT22;8828;48.800;9.540;2023-07-20T01:20:23;22.10;86.30
17421;DHT22;8828;48.800;9.540;2023-07-20T01:22:57;22.10;86.40
17421;DHT22;8828;48.800;9.540;2023-07-20T01:25:34;22.10;86.80
17421;DHT22;8828;48.800;9.540;2023-07-20T01:30:55;21.90;86.40
17421;DHT22;8828;48.800;9.540;2023-07-20T01:33:28;21.90;85.80
17421;DHT22;8828;48.800;9.540;2023-07-20T01:35:58;21.90;85.70
17421;DHT22;8828;48.800;9.540;2023-07-20T01:38:27;21.80;85.60
17421;DHT22;8828;48.800;9.540;2023-07-20T01:40:55;21.90;85.60
17421;DHT22;8828;48.800;9.540;2023-07-20T01:43:24;21.80;85.00
17421;DHT22;8828;48.800;9.540;2023-07-20T01:45:52;21.90;85.30
17421;DHT22;8828;48.800;9.540;2023-07-20T01:48:20;21.90;85.50
17421;DHT22;8828;48.800;9.540;2023-07-20T01:50:49;21.90;85.00
17421;DHT22;8828;48.800;9.540;2023-07-20T01:53:17;21.90;85.00
17421;DHT22;8828;48.800;9.540;2023-07-20T01:55:45;21.90;85.30
17421;DHT22;8828;48.800;9.540;2023-07-20T01:58:13;21.90;85.50
17421;DHT22;8828;48.800;9.540;2023-07-20T02:00:40;21.90;85.20
17421;DHT22;8828;48.800;9.540;2023-07-20T02:03:08;21.90;85.50
17421;DHT22;8828;48.800;9.540;2023-07-20T02:05:38;21.90;85.60
17421;DHT22;8828;48.800;9.540;2023-07-20T02:08:08;21.80;85.20
17421;DHT22;8828;48.800;9.540;2023-07-20T02:10:36;21.80;85.20
17421;DHT22;8828;48.800;9.540;2023-07-20T02:13:03;21.80;85.10
17421;DHT22;8828;48.800;9.540;2023-07-20T02:15:31;21.80;85.60
17421;DHT22;8828;48.800;9.540;2023-07-20T02:17:59;21.80;85.80
17421;DHT22;8828;48.800;9.540;2023-07-20T02:20:27;21.80;85.40
17421;DHT22;8828;48.800;9.540;2023-07-20T02:22:55;21.70;85.20
17421;DHT22;8828;48.800;9.540;2023-07-20T02:25:24;21.70;85.50
17421;DHT22;8828;48.800;9.540;2023-07-20T02:27:52;21.70;85.50
17421;DHT22;8828;48.800;9.540;2023-07-20T02:30:19;21.60;85.40
17421;DHT22;8828;48.800;9.540;2023-07-20T02:32:47;21.60;85.60
17421;DHT22;8828;48.800;9.540;2023-07-20T02:35:15;21.50;86.10
17421;DHT22;8828;48.800;9.540;2023-07-20T02:37:43;21.50;86.30
17421;DHT22;8828;48.800;9.540;2023-07-20T02:40:11;21.50;86.50
17421;DHT22;8828;48.800;9.540;2023-07-20T02:42:41;21.50;86.60
17421;DHT22;8828;48.800;9.540;2023-07-20T02:45:08;21.40;86.60
17421;DHT22;8828;48.800;9.540;2023-07-20T02:47:36;21.40;87.00
17421;DHT22;8828;48.800;9.540;2023-07-20T02:50:06;21.40;87.30
17421;DHT22;8828;48.800;9.540;2023-07-20T02:52:34;21.40;87.20
17421;DHT22;8828;48.800;9.540;2023-07-20T02:55:02;21.30;87.10
17421;DHT22;8828;48.800;9.540;2023-07-20T02:57:30;21.20;87.10
17421;DHT22;8828;48.800;9.540;2023-07-20T02:59:59;21.20;87.90
17421;DHT22;8828;48.800;9.540;2023-07-20T03:02:28;21.30;87.90
17421;DHT22;8828;48.800;9.540;2023-07-20T03:04:56;21.20;88.20
17421;DHT22;8828;48.800;9.540;2023-07-20T03:07:27;21.20;87.90
17421;DHT22;8828;48.800;9.540;2023-07-20T03:09:55;21.20;88.10
17421;DHT22;8828;48.800;9.540;2023-07-20T03:12:23;21.10;87.60
17421;DHT22;8828;48.800;9.540;2023-07-20T03:14:51;21.10;88.20
17421;DHT22;8828;48.800;9.540;2023-07-20T03:17:22;21.10;88.50
17421;DHT22;8828;48.800;9.540;2023-07-20T03:19:49;21.10;88.70
17421;DHT22;8828;48.800;9.540;2023-07-20T03:22:17;21.10;89.20
17421;DHT22;8828;48.800;9.540;2023-07-20T03:24:45;21.00;89.20
17421;DHT22;8828;48.800;9.540;2023-07-20T03:27:13;21.00;89.70
17421;DHT22;8828;48.800;9.540;2023-07-20T03:29:41;21.00;89.60
17421;DHT22;8828;48.800;9.540;2023-07-20T03:32:08;21.00;89.80
17421;DHT22;8828;48.800;9.540;2023-07-20T03:34:37;20.90;90.00
17421;DHT22;8828;48.800;9.540;2023-07-20T03:37:05;20.90;90.00
17421;DHT22;8828;48.800;9.540;2023-07-20T03:39:33;20.90;90.00
17421;DHT22;8828;48.800;9.540;2023-07-20T03:42:00;20.90;90.20
17421;DHT22;8828;48.800;9.540;2023-07-20T03:44:28;20.80;90.20
17421;DHT22;8828;48.800;9.540;2023-07-20T03:46:57;20.80;90.30
17421;DHT22;8828;48.800;9.540;2023-07-20T03:49:25;20.80;90.30
17421;DHT22;8828;48.800;9.540;2023-07-20T03:51:54;20.80;90.40
17421;DHT22;8828;48.800;9.540;2023-07-20T03:54:22;20.70;90.40
17421;DHT22;8828;48.800;9.540;2023-07-20T03:56:49;20.70;90.60
17421;DHT22;8828;48.800;9.540;2023-07-20T03:59:17;20.60;90.70
17421;DHT22;8828;48.800;9.540;2023-07-20T04:01:45;20.60;90.70
17421;DHT22;8828;48.800;9.540;2023-07-20T04:04:15;20.60;90.80
17421;DHT22;8828;48.800;9.540;2023-07-20T04:06:43;20.60;91.00
17421;DHT22;8828;48.800;9.540;2023-07-20T04:09:13;20.60;91.10
17421;DHT22;8828;48.800;9.540;2023-07-20T04:11:40;20.50;91.10
17421;DHT22;8828;48.800;9.540;2023-07-20T04:14:08;20.50;91.30
17421;DHT22;8828;48.800;9.540;2023-07-20T04:16:36;20.50;91.50
17421;DHT22;8828;48.800;9.540;2023-07-20T04:19:04;20.50;91.70
17421;DHT22;8828;48.800;9.540;2023-07-20T04:21:32;20.40;91.80
17421;DHT22;8828;48.800;9.540;2023-07-20T04:23:59;20.40;92.00
17421;DHT22;8828;48.800;9.540;2023-07-20T04:26:29;20.40;92.20
17421;DHT22;8828;48.800;9.540;2023-07-20T04:28:56;20.30;92.30
17421;DHT22;8828;48.800;9.540;2023-07-20T04:31:25;20.30;92.90
17421;DHT22;8828;48.800;9.540;2023-07-20T04:33:53;20.30;92.80
17421;DHT22;8828;48.800;9.540;2023-07-20T04:36:21;20.40;92.90
17421;DHT22;8828;48.800;9.540;2023-07-20T04:38:49;20.40;92.90
17421;DHT22;8828;48.800;9.540;2023-07-20T04:41:17;20.30;92.70
17421;DHT22;8828;48.800;9.540;2023-07-20T04:43:46;20.40;92.80
17421;DHT22;8828;48.800;9.540;2023-07-20T04:46:14;20.30;93.00
17421;DHT22;8828;48.800;9.540;2023-07-20T04:48:44;20.20;93.40
17421;DHT22;8828;48.800;9.540;2023-07-20T04:51:12;20.20;93.30
17421;DHT22;8828;48.800;9.540;2023-07-20T04:53:39;20.20;93.50
17421;DHT22;8828;48.800;9.540;2023-07-20T04:56:07;20.20;93.60
17421;DHT22;8828;48.800;9.540;2023-07-20T04:58:35;20.10;93.70
17421;DHT22;8828;48.800;9.540;2023-07-20T05:01:04;20.10;94.00
17421;DHT22;8828;48.800;9.540;2023-07-20T05:03:32;20.20;93.80
17421;DHT22;8828;48.800;9.540;2023-07-20T05:06:00;20.20;93.90
17421;DHT22;8828;48.800;9.540;2023-07-20T05:08:28;20.20;93.50
17421;DHT22;8828;48.800;9.540;2023-07-20T05:10:56;20.10;93.80
17421;DHT22;8828;48.800;9.540;2023-07-20T05:13:24;20.10;93.80
17421;DHT22;8828;48.800;9.540;2023-07-20T05:15:52;20.20;93.90
17421;DHT22;8828;48.800;9.540;2023-07-20T05:18:21;20.30;94.10
17421;DHT22;8828;48.800;9.540;2023-07-20T05:20:49;20.30;94.30
17421;DHT22;8828;48.800;9.540;2023-07-20T05:23:18;20.30;94.20
17421;DHT22;8828;48.800;9.540;2023-07-20T05:25:46;20.30;94.20
17421;DHT22;8828;48.800;9.540;2023-07-20T05:28:14;20.40;94.30
17421;DHT22;8828;48.800;9.540;2023-07-20T05:30:42;20.50;94.30
17421;DHT22;8828;48.800;9.540;2023-07-20T05:33:09;20.40;94.30
17421;DHT22;8828;48.800;9.540;2023-07-20T05:35:39;20.50;94.30
17421;DHT22;8828;48.800;9.540;2023-07-20T05:38:06;20.50;94.40
17421;DHT22;8828;48.800;9.540;2023-07-20T05:40:35;20.60;94.10
17421;DHT22;8828;48.800;9.540;2023-07-20T05:43:03;20.60;94.10
17421;DHT22;8828;48.800;9.540;2023-07-20T05:45:31;20.70;94.50
17421;DHT22;8828;48.800;9.540;2023-07-20T05:47:59;20.70;94.50
17421;DHT22;8828;48.800;9.540;2023-07-20T05:50:27;20.80;94.60
17421;DHT22;8828;48.800;9.540;2023-07-20T05:52:56;20.80;94.40
17421;DHT22;8828;48.800;9.540;2023-07-20T05:55:24;20.80;94.30
17421;DHT22;8828;48.800;9.540;2023-07-20T05:57:51;20.90;94.60
17421;DHT22;8828;48.800;9.540;2023-07-20T06:00:21;21.00;94.30
17421;DHT22;8828;48.800;9.540;2023-07-20T06:02:53;21.00;93.80
17421;DHT22;8828;48.800;9.540;2023-07-20T06:05:21;21.10;94.00
17421;DHT22;8828;48.800;9.540;2023-07-20T06:07:55;21.20;94.00
17421;DHT22;8828;48.800;9.540;2023-07-20T06:10:24;21.20;93.20
17421;DHT22;8828;48.800;9.540;2023-07-20T06:12:53;21.20;93.40
17421;DHT22;8828;48.800;9.540;2023-07-20T06:15:25;21.40;93.60
17421;DHT22;8828;48.800;9.540;2023-07-20T06:17:54;21.30;93.30
17421;DHT22;8828;48.800;9.540;2023-07-20T06:20:22;21.40;93.10
17421;DHT22;8828;48.800;9.540;2023-07-20T06:22:50;21.50;93.20
17421;DHT22;8828;48.800;9.540;2023-07-20T06:25:19;21.50;92.50
17421;DHT22;8828;48.800;9.540;2023-07-20T06:27:48;21.50;91.90
17421;DHT22;8828;48.800;9.540;2023-07-20T06:30:16;21.50;92.00
17421;DHT22;8828;48.800;9.540;2023-07-20T06:32:44;21.60;92.20
17421;DHT22;8828;48.800;9.540;2023-07-20T06:35:12;21.70;92.30
17421;DHT22;8828;48.800;9.540;2023-07-20T06:37:40;21.70;92.30
17421;DHT22;8828;48.800;9.540;2023-07-20T06:40:08;21.70;92.00
17421;DHT22;8828;48.800;9.540;2023-07-20T06:42:40;21.80;92.10
17421;DHT22;8828;48.800;9.540;2023-07-20T06:45:11;21.90;92.20
17421;DHT22;8828;48.800;9.540;2023-07-20T06:47:39;21.80;92.20
17421;DHT22;8828;48.800;9.540;2023-07-20T06:50:07;21.90;91.40
17421;DHT22;8828;48.800;9.540;2023-07-20T06:52:35;21.90;91.70
17421;DHT22;8828;48.800;9.540;2023-07-20T06:55:03;21.80;91.40
17421;DHT22;8828;48.800;9.540;2023-07-20T06:57:32;21.90;91.50
17421;DHT22;8828;48.800;9.540;2023-07-20T07:00:01;21.90;91.40
17421;DHT22;8828;48.800;9.540;2023-07-20T07:02:30;21.90;91.60
17421;DHT22;8828;48.800;9.540;2023-07-20T07:04:58;22.00;91.30
17421;DHT22;8828;48.800;9.540;2023-07-20T07:07:45;22.00;91.30
17421;DHT22;8828;48.800;9.540;2023-07-20T07:10:13;22.10;91.50
17421;DHT22;8828;48.800;9.540;2023-07-20T07:12:41;22.10;90.80
17421;DHT22;8828;48.800;9.540;2023-07-20T07:15:10;22.10;90.80
17421;DHT22;8828;48.800;9.540;2023-07-20T07:17:38;22.10;90.50
17421;DHT22;8828;48.800;9.540;2023-07-20T07:20:07;22.20;90.70
17421;DHT22;8828;48.800;9.540;2023-07-20T07:22:46;22.20;90.60
17421;DHT22;8828;48.800;9.540;2023-07-20T07:25:17;22.30;90.70
17421;DHT22;8828;48.800;9.540;2023-07-20T07:27:49;22.30;90.80
17421;DHT22;8828;48.800;9.540;2023-07-20T07:30:19;22.20;90.70
17421;DHT22;8828;48.800;9.540;2023-07-20T07:32:47;22.10;90.90
17421;DHT22;8828;48.800;9.540;2023-07-20T07:35:15;22.20;91.10
17421;DHT22;8828;48.800;9.540;2023-07-20T07:37:43;22.20;91.20
17421;DHT22;8828;48.800;9.540;2023-07-20T07:40:32;22.20;90.90
17421;DHT22;8828;48.800;9.540;2023-07-20T07:43:00;22.20;91.10
17421;DHT22;8828;48.800;9.540;2023-07-20T07:45:30;22.30;91.00
17421;DHT22;8828;48.800;9.540;2023-07-20T07:47:58;22.20;90.90
17421;DHT22;8828;48.800;9.540;2023-07-20T07:50:28;22.30;91.20
17421;DHT22;8828;48.800;9.540;2023-07-20T07:52:56;22.40;91.40
17421;DHT22;8828;48.800;9.540;2023-07-20T07:55:24;22.60;91.00
17421;DHT22;8828;48.800;9.540;2023-07-20T07:57:53;22.70;90.70
17421;DHT22;8828;48.800;9.540;2023-07-20T08:00:21;22.70;90.70
17421;DHT22;8828;48.800;9.540;2023-07-20T08:02:51;22.70;90.60
17421;DHT22;8828;48.800;9.540;2023-07-20T08:05:19;22.80;90.70
17421;DHT22;8828;48.800;9.540;2023-07-20T08:07:46;22.90;90.80
17421;DHT22;8828;48.800;9.540;2023-07-20T08:10:14;23.00;91.20
17421;DHT22;8828;48.800;9.540;2023-07-20T08:12:42;23.00;90.60
17421;DHT22;8828;48.800;9.540;2023-07-20T08:15:11;23.00;90.50
17421;DHT22;8828;48.800;9.540;2023-07-20T08:17:39;23.00;90.60
17421;DHT22;8828;48.800;9.540;2023-07-20T08:20:09;23.00;90.50
17421;DHT22;8828;48.800;9.540;2023-07-20T08:22:38;23.00;90.30
17421;DHT22;8828;48.800;9.540;2023-07-20T08:25:07;23.00;90.60
17421;DHT22;8828;48.800;9.540;2023-07-20T08:27:35;23.10;90.00
17421;DHT22;8828;48.800;9.540;2023-07-20T08:30:04;23.00;90.00
17421;DHT22;8828;48.800;9.540;2023-07-20T08:32:32;22.90;90.50
17421;DHT22;8828;48.800;9.540;2023-07-20T08:35:00;22.80;90.90
17421;DHT22;8828;48.800;9.540;2023-07-20T08:37:29;22.90;91.00
17421;DHT22;8828;48.800;9.540;2023-07-20T08:39:57;22.90;91.00
17421;DHT22;8828;48.800;9.540;2023-07-20T08:42:25;23.00;91.20
17421;DHT22;8828;48.800;9.540;2023-07-20T08:44:55;23.10;90.80
17421;DHT22;8828;48.800;9.540;2023-07-20T08:47:23;23.30;90.60
17421;DHT22;8828;48.800;9.540;2023-07-20T08:49:53;23.30;90.50
17421;DHT22;8828;48.800;9.540;2023-07-20T08:52:22;23.30;90.50
17421;DHT22;8828;48.800;9.540;2023-07-20T08:54:51;23.30;90.00
17421;DHT22;8828;48.800;9.540;2023-07-20T08:57:19;23.30;90.30
17421;DHT22;8828;48.800;9.540;2023-07-20T08:59:49;23.20;89.70
17421;DHT22;8828;48.800;9.540;2023-07-20T09:02:18;23.30;90.10
17421;DHT22;8828;48.800;9.540;2023-07-20T09:04:46;23.50;89.30
17421;DHT22;8828;48.800;9.540;2023-07-20T09:07:14;23.60;89.20
17421;DHT22;8828;48.800;9.540;2023-07-20T09:09:43;23.70;88.00
17421;DHT22;8828;48.800;9.540;2023-07-20T09:12:15;23.70;88.00
17421;DHT22;8828;48.800;9.540;2023-07-20T09:14:43;23.70;88.10
17421;DHT22;8828;48.800;9.540;2023-07-20T09:17:14;23.60;88.00
17421;DHT22;8828;48.800;9.540;2023-07-20T09:19:47;23.60;87.50
17421;DHT22;8828;48.800;9.540;2023-07-20T09:22:15;23.50;88.00
17421;DHT22;8828;48.800;9.540;2023-07-20T09:24:44;23.50;88.20
17421;DHT22;8828;48.800;9.540;2023-07-20T09:27:12;23.50;89.40
17421;DHT22;8828;48.800;9.540;2023-07-20T09:29:50;23.50;88.60
17421;DHT22;8828;48.800;9.540;2023-07-20T09:32:19;23.50;88.80
17421;DHT22;8828;48.800;9.540;2023-07-20T09:34:51;23.50;88.60
17421;DHT22;8828;48.800;9.540;2023-07-20T09:37:20;23.50;88.20
17421;DHT22;8828;48.800;9.540;2023-07-20T09:39:48;23.60;89.20
17421;DHT22;8828;48.800;9.540;2023-07-20T09:42:19;23.70;88.60
17421;DHT22;8828;48.800;9.540;2023-07-20T09:44:52;23.80;87.90
17421;DHT22;8828;48.800;9.540;2023-07-20T09:47:23;23.80;87.10
17421;DHT22;8828;48.800;9.540;2023-07-20T09:49:57;23.80;86.80
17421;DHT22;8828;48.800;9.540;2023-07-20T09:52:29;23.80;85.40
17421;DHT22;8828;48.800;9.540;2023-07-20T09:54:59;23.80;85.50
17421;DHT22;8828;48.800;9.540;2023-07-20T09:57:28;23.80;84.70
17421;DHT22;8828;48.800;9.540;2023-07-20T09:59:58;23.90;85.50
17421;DHT22;8828;48.800;9.540;2023-07-20T10:02:30;24.00;84.80
17421;DHT22;8828;48.800;9.540;2023-07-20T10:05:01;24.10;85.10
17421;DHT22;8828;48.800;9.540;2023-07-20T10:07:30;24.20;83.80
17421;DHT22;8828;48.800;9.540;2023-07-20T10:09:59;24.30;84.10
17421;DHT22;8828;48.800;9.540;2023-07-20T10:12:29;24.50;83.40
17421;DHT22;8828;48.800;9.540;2023-07-20T10:15:08;24.80;82.30
17421;DHT22;8828;48.800;9.540;2023-07-20T10:17:38;25.00;80.50
17421;DHT22;8828;48.800;9.540;2023-07-20T10:20:08;25.20;78.90
17421;DHT22;8828;48.800;9.540;2023-07-20T10:22:37;25.40;77.80
17421;DHT22;8828;48.800;9.540;2023-07-20T10:25:08;25.50;78.40
17421;DHT22;8828;48.800;9.540;2023-07-20T10:27:36;25.70;78.60
17421;DHT22;8828;48.800;9.540;2023-07-20T10:30:07;26.10;78.80
17421;DHT22;8828;48.800;9.540;2023-07-20T10:32:35;26.30;77.00
17421;DHT22;8828;48.800;9.540;2023-07-20T10:35:11;26.60;76.20
17421;DHT22;8828;48.800;9.540;2023-07-20T10:37:49;26.90;75.60
17421;DHT22;8828;48.800;9.540;2023-07-20T10:40:24;27.20;74.60
17421;DHT22;8828;48.800;9.540;2023-07-20T10:42:55;27.50;73.30
17421;DHT22;8828;48.800;9.540;2023-07-20T10:45:33;27.80;72.00
17421;DHT22;8828;48.800;9.540;2023-07-20T10:48:04;27.90;71.30
17421;DHT22;8828;48.800;9.540;2023-07-20T10:50:33;28.00;70.60
17421;DHT22;8828;48.800;9.540;2023-07-20T10:53:04;28.10;69.70
17421;DHT22;8828;48.800;9.540;2023-07-20T10:55:32;28.20;68.90
17421;DHT22;8828;48.800;9.540;2023-07-20T10:58:08;28.30;69.90
17421;DHT22;8828;48.800;9.540;2023-07-20T11:00:37;28.40;69.10
17421;DHT22;8828;48.800;9.540;2023-07-20T11:03:05;28.50;68.40
17421;DHT22;8828;48.800;9.540;2023-07-20T11:05:34;28.70;68.10
17421;DHT22;8828;48.800;9.540;2023-07-20T11:08:03;28.60;67.80
17421;DHT22;8828;48.800;9.540;2023-07-20T11:10:31;28.60;66.80
17421;DHT22;8828;48.800;9.540;2023-07-20T11:13:18;28.40;66.90
17421;DHT22;8828;48.800;9.540;2023-07-20T11:16:00;28.40;67.50
17421;DHT22;8828;48.800;9.540;2023-07-20T11:18:29;28.70;66.60
17421;DHT22;8828;48.800;9.540;2023-07-20T11:20:58;28.80;65.20
17421;DHT22;8828;48.800;9.540;2023-07-20T11:23:26;29.00;66.10
17421;DHT22;8828;48.800;9.540;2023-07-20T11:25:54;29.10;64.60
17421;DHT22;8828;48.800;9.540;2023-07-20T11:28:21;29.20;65.40
17421;DHT22;8828;48.800;9.540;2023-07-20T11:30:52;29.30;64.00
17421;DHT22;8828;48.800;9.540;2023-07-20T11:33:21;29.30;62.90
17421;DHT22;8828;48.800;9.540;2023-07-20T11:35:49;29.40;63.70
17421;DHT22;8828;48.800;9.540;2023-07-20T11:38:20;29.40;63.10
17421;DHT22;8828;48.800;9.540;2023-07-20T11:40:48;29.30;62.50
17421;DHT22;8828;48.800;9.540;2023-07-20T11:43:16;29.30;62.60
17421;DHT22;8828;48.800;9.540;2023-07-20T11:45:47;29.40;62.20
17421;DHT22;8828;48.800;9.540;2023-07-20T11:48:16;29.40;62.50
17421;DHT22;8828;48.800;9.540;2023-07-20T11:50:44;29.40;62.20
17421;DHT22;8828;48.800;9.540;2023-07-20T11:53:13;29.50;62.10
17421;DHT22;8828;48.800;9.540;2023-07-20T11:55:42;29.60;62.20
17421;DHT22;8828;48.800;9.540;2023-07-20T11:58:09;29.60;61.70
17421;DHT22;8828;48.800;9.540;2023-07-20T12:00:38;29.70;62.40
17421;DHT22;8828;48.800;9.540;2023-07-20T12:03:06;29.70;60.70
17421;DHT22;8828;48.800;9.540;2023-07-20T12:05:35;29.70;61.90
17421;DHT22;8828;48.800;9.540;2023-07-20T12:08:23;29.80;60.40
17421;DHT22;8828;48.800;9.540;2023-07-20T12:10:51;29.80;60.00
17421;DHT22;8828;48.800;9.540;2023-07-20T12:13:19;29.90;60.70
17421;DHT22;8828;48.800;9.540;2023-07-20T12:15:47;30.00;59.90
17421;DHT22;8828;48.800;9.540;2023-07-20T12:18:15;30.00;59.70
17421;DHT22;8828;48.800;9.540;2023-07-20T12:20:44;30.10;59.40
17421;DHT22;8828;48.800;9.540;2023-07-20T12:23:12;30.20;58.30
17421;DHT22;8828;48.800;9.540;2023-07-20T12:25:41;30.30;59.10
17421;DHT22;8828;48.800;9.540;2023-07-20T12:28:10;30.30;59.80
17421;DHT22;8828;48.800;9.540;2023-07-20T12:30:39;30.20;59.00
17421;DHT22;8828;48.800;9.540;2023-07-20T12:33:07;30.20;59.00
17421;DHT22;8828;48.800;9.540;2023-07-20T12:35:35;30.30;59.10
17421;DHT22;8828;48.800;9.540;2023-07-20T12:38:04;30.30;59.20
17421;DHT22;8828;48.800;9.540;2023-07-20T12:40:33;30.30;58.80
17421;DHT22;8828;48.800;9.540;2023-07-20T12:43:01;30.30;58.50
17421;DHT22;8828;48.800;9.540;2023-07-20T12:45:29;30.30;57.60
17421;DHT22;8828;48.800;9.540;2023-07-20T12:47:57;30.20;58.20
17421;DHT22;8828;48.800;9.540;2023-07-20T12:50:25;30.10;57.30
17421;DHT22;8828;48.800;9.540;2023-07-20T12:52:53;30.10;58.00
17421;DHT22;8828;48.800;9.540;2023-07-20T12:55:22;30.10;57.90
17421;DHT22;8828;48.800;9.540;2023-07-20T12:57:50;30.30;57.30
17421;DHT22;8828;48.800;9.540;2023-07-20T13:00:18;30.30;57.20
17421;DHT22;8828;48.800;9.540;2023-07-20T13:02:46;30.30;56.80
17421;DHT22;8828;48.800;9.540;2023-07-20T13:05:15;30.50;57.50
17421;DHT22;8828;48.800;9.540;2023-07-20T13:07:43;30.50;57.00
17421;DHT22;8828;48.800;9.540;2023-07-20T13:10:15;30.50;56.60
17421;DHT22;8828;48.800;9.540;2023-07-20T13:12:44;30.50;56.90
17421;DHT22;8828;48.800;9.540;2023-07-20T13:15:12;30.50;55.60
17421;DHT22;8828;48.800;9.540;2023-07-20T13:17:40;30.40;55.20
17421;DHT22;8828;48.800;9.540;2023-07-20T13:20:08;30.20;55.80
17421;DHT22;8828;48.800;9.540;2023-07-20T13:22:37;30.30;56.70
17421;DHT22;8828;48.800;9.540;2023-07-20T13:25:06;30.40;56.30
17421;DHT22;8828;48.800;9.540;2023-07-20T13:27:34;30.50;56.70
17421;DHT22;8828;48.800;9.540;2023-07-20T13:30:06;30.60;55.70
17421;DHT22;8828;48.800;9.540;2023-07-20T13:32:36;30.40;55.70
17421;DHT22;8828;48.800;9.540;2023-07-20T13:35:10;30.40;55.10
17421;DHT22;8828;48.800;9.540;2023-07-20T13:37:38;30.30;56.10
17421;DHT22;8828;48.800;9.540;2023-07-20T13:40:06;30.30;56.30
17421;DHT22;8828;48.800;9.540;2023-07-20T13:42:35;30.30;56.40
17421;DHT22;8828;48.800;9.540;2023-07-20T13:45:06;30.30;56.00
17421;DHT22;8828;48.800;9.540;2023-07-20T13:47:34;30.30;55.00
17421;DHT22;8828;48.800;9.540;2023-07-20T13:50:03;30.20;56.00
17421;DHT22;8828;48.800;9.540;2023-07-20T13:52:31;30.30;56.00
17421;DHT22;8828;48.800;9.540;2023-07-20T13:55:02;30.30;56.00
17421;DHT22;8828;48.800;9.540;2023-07-20T13:57:31;30.40;55.60
17421;DHT22;8828;48.800;9.540;2023-07-20T14:00:01;30.40;54.80
17421;DHT22;8828;48.800;9.540;2023-07-20T14:02:34;30.30;54.80
17421;DHT22;8828;48.800;9.540;2023-07-20T14:05:06;30.20;55.50
17421;DHT22;8828;48.800;9.540;2023-07-20T14:07:37;30.10;55.50
17421;DHT22;8828;48.800;9.540;2023-07-20T14:10:06;30.10;55.00
17421;DHT22;8828;48.800;9.540;2023-07-20T14:12:37;30.00;54.70
17421;DHT22;8828;48.800;9.540;2023-07-20T14:15:05;30.00;55.90
17421;DHT22;8828;48.800;9.540;2023-07-20T14:17:35;30.10;56.60
17421;DHT22;8828;48.800;9.540;2023-07-20T14:20:04;30.20;56.10
17421;DHT22;8828;48.800;9.540;2023-07-20T14:22:47;30.20;55.70
17421;DHT22;8828;48.800;9.540;2023-07-20T14:25:17;30.20;55.60
17421;DHT22;8828;48.800;9.540;2023-07-20T14:27:46;30.30;55.70
17421;DHT22;8828;48.800;9.540;2023-07-20T14:30:14;30.30;55.70
17421;DHT22;8828;48.800;9.540;2023-07-20T14:32:43;30.30;55.10
17421;DHT22;8828;48.800;9.540;2023-07-20T14:35:11;30.30;55.20
17421;DHT22;8828;48.800;9.540;2023-07-20T14:37:40;30.30;55.20
17421;DHT22;8828;48.800;9.540;2023-07-20T14:40:08;30.30;54.80
17421;DHT22;8828;48.800;9.540;2023-07-20T14:42:36;30.20;54.90
17421;DHT22;8828;48.800;9.540;2023-07-20T14:45:05;30.30;54.10
17421;DHT22;8828;48.800;9.540;2023-07-20T14:47:33;30.30;54.60
17421;DHT22;8828;48.800;9.540;2023-07-20T14:50:03;30.20;53.90
17421;DHT22;8828;48.800;9.540;2023-07-20T14:52:31;30.20;54.60
17421;DHT22;8828;48.800;9.540;2023-07-20T14:54:59;30.10;54.90
17421;DHT22;8828;48.800;9.540;2023-07-20T14:57:27;30.20;54.50
17421;DHT22;8828;48.800;9.540;2023-07-20T14:59:55;30.00;54.60
17421;DHT22;8828;48.800;9.540;2023-07-20T15:02:23;29.80;54.40
17421;DHT22;8828;48.800;9.540;2023-07-20T15:04:51;29.70;54.20
17421;DHT22;8828;48.800;9.540;2023-07-20T15:07:21;29.50;54.10
17421;DHT22;8828;48.800;9.540;2023-07-20T15:09:49;29.40;54.90
17421;DHT22;8828;48.800;9.540;2023-07-20T15:12:17;29.30;54.50
17421;DHT22;8828;48.800;9.540;2023-07-20T15:14:45;29.20;54.20
17421;DHT22;8828;48.800;9.540;2023-07-20T15:17:17;29.20;54.90
17421;DHT22;8828;48.800;9.540;2023-07-20T15:19:45;29.20;54.70
17421;DHT22;8828;48.800;9.540;2023-07-20T15:22:13;29.20;54.90
17421;DHT22;8828;48.800;9.540;2023-07-20T15:24:42;29.20;55.50
17421;DHT22;8828;48.800;9.540;2023-07-20T15:27:10;29.30;55.80
17421;DHT22;8828;48.800;9.540;2023-07-20T15:29:38;29.40;55.20
17421;DHT22;8828;48.800;9.540;2023-07-20T15:32:06;29.40;54.00
17421;DHT22;8828;48.800;9.540;2023-07-20T15:34:35;29.30;54.30
17421;DHT22;8828;48.800;9.540;2023-07-20T15:37:03;29.20;54.70
17421;DHT22;8828;48.800;9.540;2023-07-20T15:39:31;29.10;54.30
17421;DHT22;8828;48.800;9.540;2023-07-20T15:42:01;29.10;54.40
17421;DHT22;8828;48.800;9.540;2023-07-20T15:44:30;29.10;54.50
17421;DHT22;8828;48.800;9.540;2023-07-20T15:46:57;29.10;54.60
17421;DHT22;8828;48.800;9.540;2023-07-20T15:49:26;29.10;54.50
17421;DHT22;8828;48.800;9.540;2023-07-20T15:51:58;29.00;54.60
17421;DHT22;8828;48.800;9.540;2023-07-20T15:54:26;29.00;54.70
17421;DHT22;8828;48.800;9.540;2023-07-20T15:56:54;29.10;55.50
17421;DHT22;8828;48.800;9.540;2023-07-20T15:59:23;29.10;54.50